Time;durP1;ratioP1;P1;durP2;ratioP2;P2;SDS_P1;SDS_P2;PMS_P1;PMS_P2;Temp;Humidity;BMP_temperature;BMP_pressure;BME280_temperature;BME280_humidity;BME280_pressure;Samples;Min_cycle;Max_cycle;Signal;HPM_P1;HPM_P2
2022/03/11 00:00:42;;;;;;;17.30;8.20;;;;;;;-1.90;53.51;102791.91;10257404;28;20740;-64
2022/03/11 00:05:47;;;;;;;350.63;201.90;;;;;;;-1.89;54.89;102801.31;10257106;28;20866;-63
2022/03/11 00:10:50;;;;;;;17.08;8.27;;;;;;;-1.86;53.44;102792.25;10254970;28;20401;-65
2022/03/11 00:15:54;;;;;;;18.35;7.93;;;;;;;-1.84;55.65;102795.81;10253760;28;20771;-65
2022/03/11 00:20:58;;;;;;;20.00;8.70;;;;;;;-1.80;53.45;102797.84;9905929;28;10000843;-66
2022/03/11 00:26:02;;;;;;;18.17;7.65;;;;;;;-1.99;53.47;102798.81;10213581;29;20436;-65
2022/03/11 00:31:06;;;;;;;17.87;7.83;;;;;;;-2.06;53.38;102801.63;10213984;29;20410;-64
2022/03/11 00:36:11;;;;;;;19.33;7.77;;;;;;;-2.01;54.62;102792.72;10212990;29;20771;-64
2022/03/11 00:41:14;;;;;;;18.20;8.25;;;;;;;-2.00;56.90;102797.03;10213069;29;20394;-64
2022/03/11 00:46:18;;;;;;;16.88;7.55;;;;;;;-2.02;56.84;102796.91;10213167;29;20410;-66
2022/03/11 00:51:22;;;;;;;18.90;8.00;;;;;;;-2.07;56.26;102804.97;10212872;29;20410;-67
2022/03/11 00:56:27;;;;;;;17.13;7.90;;;;;;;-2.15;55.46;102796.72;10212400;29;20414;-65
2022/03/11 01:01:30;;;;;;;14.93;7.15;;;;;;;-2.18;54.03;102805.75;10212462;29;20412;-62
2022/03/11 01:06:35;;;;;;;18.67;8.87;;;;;;;-2.22;54.91;102803.72;10212037;29;20922;-65
2022/03/11 01:11:39;;;;;;;22.55;10.13;;;;;;;-2.25;55.86;102804.38;10212143;29;20408;-64
2022/03/11 01:16:42;;;;;;;25.92;11.00;;;;;;;-2.27;57.08;102805.91;10212502;29;20468;-63
2022/03/11 01:21:47;;;;;;;25.17;11.90;;;;;;;-2.42;56.37;102805.53;10215060;29;20401;-67
2022/03/11 01:26:50;;;;;;;26.77;12.55;;;;;;;-2.41;56.87;102803.91;10214734;29;20406;-67
2022/03/11 01:31:54;;;;;;;25.77;12.73;;;;;;;-2.48;57.84;102796.53;10214721;29;20397;-66
2022/03/11 01:36:59;;;;;;;29.75;15.23;;;;;;;-2.58;57.99;102797.47;10214695;29;20421;-65
2022/03/11 01:42:02;;;;;;;26.65;11.52;;;;;;;-2.57;58.59;102811.06;10214298;29;20424;-61
2022/03/11 01:47:07;;;;;;;22.55;10.90;;;;;;;-2.64;59.35;102821.50;10214775;29;20409;-65
2022/03/11 01:52:12;;;;;;;26.83;11.75;;;;;;;-2.72;58.96;102823.41;10214229;29;20402;-67
2022/03/11 01:57:15;;;;;;;21.33;10.30;;;;;;;-2.76;57.97;102818.81;10213980;29;20429;-66
2022/03/11 02:02:19;;;;;;;21.88;10.52;;;;;;;-2.80;59.42;102818.47;10214048;29;20826;-67
2022/03/11 02:07:24;;;;;;;23.25;11.10;;;;;;;-2.91;60.38;102821.75;10218156;29;20487;-66
2022/03/11 02:12:28;;;;;;;20.73;8.53;;;;;;;-2.93;60.34;102834.31;10224649;29;20220;-64
2022/03/11 02:17:32;;;;;;;21.37;8.07;;;;;;;-3.01;59.36;102826.84;10223998;29;20690;-64
2022/03/11 02:22:40;;;;;;;21.90;8.63;;;;;;;-3.13;59.15;102824.16;10224479;29;20217;-65
2022/03/11 02:27:46;;;;;;;25.27;8.60;;;;;;;-3.16;58.81;102834.09;10224334;29;20312;-67
2022/03/11 02:32:49;;;;;;;21.80;8.90;;;;;;;-3.19;58.52;102832.94;10223562;29;20225;-68
2022/03/11 02:37:52;;;;;;;21.27;8.37;;;;;;;-3.34;58.65;102829.97;10223462;29;20311;-65
2022/03/11 02:42:57;;;;;;;19.00;6.40;;;;;;;-3.33;60.28;102828.34;10223057;29;20548;-63
2022/03/11 02:48:00;;;;;;;20.63;7.40;;;;;;;-3.30;59.74;102826.94;10223489;29;20224;-66
2022/03/11 02:53:04;;;;;;;18.60;5.80;;;;;;;-3.41;59.07;102832.75;10222961;29;20231;-64
2022/03/11 02:58:09;;;;;;;18.13;6.40;;;;;;;-3.47;60.97;102828.81;10222703;29;20239;-62
2022/03/11 03:03:12;;;;;;;17.00;5.97;;;;;;;-3.52;60.87;102844.53;10222689;29;20869;-65
2022/03/11 03:08:16;;;;;;;17.60;6.70;;;;;;;-3.53;61.22;102840.22;10222342;29;20209;-67
2022/03/11 03:13:20;;;;;;;18.17;6.70;;;;;;;-3.59;61.21;102842.22;10222256;29;20280;-64
2022/03/11 03:18:23;;;;;;;20.80;6.23;;;;;;;-3.60;61.75;102839.56;10220531;29;20315;-61
2022/03/11 03:23:27;;;;;;;15.37;6.80;;;;;;;-3.54;61.78;102837.56;10222149;29;20540;-64
2022/03/11 03:28:31;;;;;;;16.33;6.00;;;;;;;-3.58;62.74;102840.56;10221791;29;20215;-65
2022/03/11 03:33:34;;;;;;;16.13;6.57;;;;;;;-3.56;62.56;102836.53;10221502;29;20521;-67
2022/03/11 03:38:38;;;;;;;17.50;6.63;;;;;;;-3.59;63.52;102841.34;10221335;29;20235;-65
2022/03/11 03:43:42;;;;;;;21.37;5.90;;;;;;;-3.60;62.71;102830.31;10221150;29;20204;-64
2022/03/11 03:48:45;;;;;;;18.73;6.13;;;;;;;-3.65;63.99;102841.72;10220946;29;20207;-65
2022/03/11 03:53:49;;;;;;;22.57;6.13;;;;;;;-3.68;63.51;102841.44;10220890;29;20213;-67
2022/03/11 03:58:53;;;;;;;12.10;5.13;;;;;;;-3.71;64.23;102842.84;10220434;29;20231;-66
2022/03/11 04:04:03;;;;;;;12.33;5.03;;;;;;;-3.84;63.83;102842.50;10220637;29;20204;-63
2022/03/11 04:09:08;;;;;;;18.03;6.70;;;;;;;-3.81;64.49;102847.84;10220227;29;20223;-69
2022/03/11 04:14:12;;;;;;;15.30;6.30;;;;;;;-3.79;64.79;102846.34;10220333;28;20287;-65
2022/03/11 04:19:16;;;;;;;14.07;6.43;;;;;;;-3.81;64.62;102842.78;9875815;28;9999746;-63
2022/03/11 04:24:19;;;;;;;17.33;5.83;;;;;;;-3.90;64.96;102837.78;10216298;29;20197;-64
2022/03/11 04:29:26;;;;;;;15.13;5.73;;;;;;;-3.94;65.70;102840.84;10215602;29;20193;-63
2022/03/11 04:34:29;;;;;;;13.37;4.90;;;;;;;-3.91;65.95;102841.09;10216166;29;20295;-64
2022/03/11 04:39:32;;;;;;;16.40;6.10;;;;;;;-3.99;65.42;102838.66;10215535;29;20552;-61
2022/03/11 04:44:37;;;;;;;18.40;6.43;;;;;;;-3.91;65.18;102835.13;10218315;29;20296;-64
2022/03/11 04:49:40;;;;;;;19.47;6.43;;;;;;;-3.92;65.98;102840.97;10218450;29;20201;-63
2022/03/11 04:54:43;;;;;;;15.83;5.90;;;;;;;-3.92;66.31;102833.38;10218578;29;20203;-72
2022/03/11 04:59:48;;;;;;;14.00;5.10;;;;;;;-3.99;65.98;102831.06;10218335;29;20220;-66
2022/03/11 05:04:52;;;;;;;14.80;5.40;;;;;;;-3.94;66.89;102824.72;10218109;29;20280;-66
2022/03/11 05:09:55;;;;;;;19.47;5.67;;;;;;;-4.02;67.02;102831.66;10218343;29;20622;-65
2022/03/11 05:14:59;;;;;;;16.20;6.10;;;;;;;-4.03;66.66;102834.06;10217653;29;20207;-69
2022/03/11 05:20:04;;;;;;;11.10;5.20;;;;;;;-3.97;67.23;102837.16;10217417;29;20240;-64
2022/03/11 05:25:08;;;;;;;13.80;6.17;;;;;;;-4.01;66.41;102842.69;10217437;29;20232;-64
2022/03/11 05:30:13;;;;;;;16.47;5.80;;;;;;;-4.09;67.02;102843.69;10217154;29;20231;-64
2022/03/11 05:35:17;;;;;;;18.90;6.57;;;;;;;-4.24;67.14;102849.91;10214262;29;20211;-65
2022/03/11 05:40:23;;;;;;;14.30;6.47;;;;;;;-4.32;66.92;102845.81;10212845;29;20242;-65
2022/03/11 05:45:28;;;;;;;18.57;5.83;;;;;;;-4.25;66.64;102856.66;10213838;29;20196;-67
2022/03/11 05:50:31;;;;;;;18.00;6.23;;;;;;;-3.93;66.76;102862.00;10236109;28;20209;-65
2022/03/11 05:55:35;;;;;;;20.20;6.67;;;;;;;-3.84;66.73;102861.16;10255984;28;20208;-67
2022/03/11 06:00:39;;;;;;;17.00;6.00;;;;;;;-3.63;67.21;102863.03;10291590;28;20250;-67
2022/03/11 06:05:43;;;;;;;19.33;7.17;;;;;;;-3.50;65.97;102867.50;10292117;28;20566;-66
2022/03/11 06:10:47;;;;;;;15.40;5.90;;;;;;;-3.49;64.40;102869.28;10292477;28;20224;-65
2022/03/11 06:15:51;;;;;;;13.70;5.53;;;;;;;-3.36;64.68;102861.94;10291973;28;20233;-64
2022/03/11 06:20:56;;;;;;;17.30;5.30;;;;;;;-3.15;63.28;102866.31;10292620;28;20235;-66
2022/03/11 06:25:59;;;;;;;12.97;4.70;;;;;;;-2.91;61.53;102864.94;10291626;28;20285;-65
2022/03/11 06:31:04;;;;;;;13.33;5.07;;;;;;;-2.97;59.84;102870.38;10292332;28;20318;-66
2022/03/11 06:36:07;;;;;;;14.63;5.63;;;;;;;-2.92;57.76;102865.72;10291686;28;20234;-67
2022/03/11 06:41:11;;;;;;;10.47;5.80;;;;;;;-2.86;58.52;102872.19;10291771;28;20683;-64
2022/03/11 06:46:17;;;;;;;14.20;4.90;;;;;;;-2.79;56.75;102873.56;10291408;28;20248;-64
2022/03/11 06:51:20;;;;;;;15.03;5.27;;;;;;;-2.55;56.19;102871.41;9927470;28;10000498;-65
2022/03/11 06:56:24;;;;;;;12.30;4.97;;;;;;;-2.36;56.21;102867.06;10259293;28;20224;-64
2022/03/11 07:01:29;;;;;;;13.07;4.83;;;;;;;-2.41;55.07;102868.34;10258467;28;20235;-65
2022/03/11 07:06:33;;;;;;;15.43;5.90;;;;;;;-2.34;54.87;102864.66;10276006;28;20235;-68
2022/03/11 07:11:37;;;;;;;14.97;5.43;;;;;;;-2.23;54.73;102868.97;10298771;28;20223;-66
2022/03/11 07:16:42;;;;;;;13.57;4.70;;;;;;;-2.13;54.16;102865.50;10297452;28;20215;-67
2022/03/11 07:21:45;;;;;;;15.63;5.13;;;;;;;-2.07;53.42;102873.63;10298037;28;20227;-65
2022/03/11 07:26:48;;;;;;;19.40;7.43;;;;;;;-2.01;53.29;102871.56;10297281;28;20540;-66
2022/03/11 07:31:53;;;;;;;18.07;6.57;;;;;;;-2.10;52.96;102870.81;10297545;28;20227;-67
2022/03/11 07:36:57;;;;;;;16.10;5.70;;;;;;;-1.97;52.50;102868.50;10279458;28;20216;-65
2022/03/11 07:42:00;;;;;;;16.07;6.03;;;;;;;-1.85;52.10;102875.47;10257502;29;20239;-66
2022/03/11 07:47:05;;;;;;;12.17;4.33;;;;;;;-1.75;51.73;102866.91;10257206;28;20676;-66
2022/03/11 07:52:14;;;;;;;8.83;4.20;;;;;;;-1.43;50.04;102877.94;10257472;28;20242;-64
2022/03/11 07:57:18;;;;;;;11.07;4.17;;;;;;;-1.27;49.44;102873.25;10256798;28;20228;-65
2022/03/11 08:02:22;;;;;;;10.30;3.17;;;;;;;-1.23;48.27;102866.00;10256400;28;20720;-66
2022/03/11 08:07:26;;;;;;;10.83;3.70;;;;;;;-1.05;47.88;102861.41;10256332;28;20552;-64
2022/03/11 08:12:29;;;;;;;11.50;3.60;;;;;;;-0.96;48.20;102862.09;10256129;29;20764;-68
2022/03/11 08:17:34;;;;;;;10.00;3.67;;;;;;;-0.77;47.53;102851.63;10255694;28;20240;-63
2022/03/11 08:22:38;;;;;;;9.10;3.30;;;;;;;-0.69;45.87;102851.44;10255884;29;20282;-64
2022/03/11 08:27:41;;;;;;;8.50;3.00;;;;;;;-0.34;44.78;102852.38;10255906;28;20242;-70
2022/03/11 08:32:46;;;;;;;13.33;3.13;;;;;;;-0.31;42.78;102855.16;10255222;29;20676;-66
2022/03/11 08:37:52;;;;;;;10.67;3.10;;;;;;;-0.25;42.70;102847.97;10255402;28;20232;-65
2022/03/11 08:42:56;;;;;;;11.40;3.20;;;;;;;-0.04;42.40;102846.97;10254681;29;20228;-67
2022/03/11 08:48:01;;;;;;;8.13;2.37;;;;;;;0.14;40.79;102844.81;10255005;28;20224;-66
2022/03/11 08:53:04;;;;;;;6.17;2.30;;;;;;;0.40;40.48;102841.56;10254807;29;20367;-69
2022/03/11 08:58:07;;;;;;;8.50;2.53;;;;;;;0.56;40.25;102842.75;10254545;28;20216;-68
2022/03/11 09:03:12;;;;;;;7.27;1.93;;;;;;;0.83;39.00;102844.63;10255473;29;20224;-68
2022/03/11 09:08:15;;;;;;;7.00;2.07;;;;;;;0.98;38.30;102834.59;10257142;28;20220;-64
2022/03/11 09:13:19;;;;;;;11.70;2.87;;;;;;;1.05;36.11;102831.66;10257188;29;20224;-68
2022/03/11 09:18:23;;;;;;;6.40;2.70;;;;;;;1.35;36.91;102823.47;10256765;28;20232;-64
2022/03/11 09:23:27;;;;;;;6.67;2.03;;;;;;;1.70;35.75;102820.66;10256758;29;20231;-65
2022/03/11 09:28:31;;;;;;;8.77;2.90;;;;;;;2.19;35.33;102815.31;10256950;28;20250;-66
2022/03/11 09:33:36;;;;;;;8.73;3.07;;;;;;;2.46;35.23;102814.47;10256518;29;20676;-67
2022/03/11 09:38:40;;;;;;;8.30;3.57;;;;;;;2.59;35.96;102813.56;10255912;28;20234;-67
2022/03/11 09:43:43;;;;;;;6.67;3.03;;;;;;;3.08;36.03;102814.03;10253301;29;20336;-66
2022/03/11 09:48:48;;;;;;;9.93;2.77;;;;;;;3.88;33.95;102799.84;10253036;28;20569;-67
2022/03/11 09:53:52;;;;;;;7.03;2.70;;;;;;;4.53;33.01;102784.63;10253230;28;20231;-65
2022/03/11 09:58:56;;;;;;;8.23;2.70;;;;;;;5.21;32.43;102783.00;10262508;28;20234;-63
2022/03/11 10:04:01;;;;;;;9.63;2.50;;;;;;;5.91;31.47;102784.81;10292669;28;20226;-65
2022/03/11 10:09:04;;;;;;;7.20;3.00;;;;;;;6.60;31.86;102785.50;10292472;28;20227;-68
2022/03/11 10:14:08;;;;;;;;;;;;;;;7.02;29.83;102783.91;10292860;28;20039;-67
2022/03/11 10:19:14;;;;;;;;;;;;;;;7.40;29.59;102768.34;10292066;28;19926;-67
2022/03/11 10:24:18;;;;;;;;;;;;;;;7.87;28.98;102765.03;10292912;28;19932;-64
2022/03/11 10:29:23;;;;;;;9.23;3.20;;;;;;;8.43;29.69;102755.22;10294547;28;20444;-64
2022/03/11 10:34:31;;;;;;;7.03;2.97;;;;;;;8.65;29.16;102755.16;10300337;28;20251;-69
2022/03/11 10:39:37;;;;;;;6.00;3.07;;;;;;;9.12;28.85;102746.47;10299167;28;20227;-68
2022/03/11 10:44:56;;;;;;;6.60;2.70;;;;;;;9.21;27.73;102746.78;10299822;28;20282;-67
2022/03/11 10:50:03;;;;;;;7.57;2.83;;;;;;;9.58;27.60;102733.31;10286699;28;20235;-64
2022/03/11 10:55:19;;;;;;;6.43;2.37;;;;;;;10.01;27.05;102734.69;10261755;28;20216;-65
2022/03/11 11:00:24;;;;;;;8.07;2.67;;;;;;;10.50;26.75;102726.63;10264574;28;20239;-65
2022/03/11 11:05:30;;;;;;;5.77;2.70;;;;;;;10.86;26.97;102731.94;10301959;28;20230;-65
2022/03/11 11:10:37;;;;;;;6.90;2.83;;;;;;;11.45;26.55;102722.25;10280818;28;20238;-63
2022/03/11 11:15:41;;;;;;;8.80;2.50;;;;;;;11.80;26.46;102720.50;10261617;29;20224;-65
2022/03/11 11:20:48;;;;;;;9.13;3.73;;;;;;;11.70;25.78;102717.66;10261173;28;20670;-64
2022/03/11 11:25:52;;;;;;;7.60;2.53;;;;;;;12.40;25.62;102713.13;10259510;29;20234;-64
2022/03/11 11:30:57;;;;;;;7.80;2.30;;;;;;;12.97;25.04;102690.78;10257789;28;20216;-64
2022/03/11 11:36:02;;;;;;;6.30;2.20;;;;;;;12.90;23.90;102694.13;10257971;29;20225;-63
2022/03/11 11:41:23;;;;;;;6.97;2.50;;;;;;;13.34;24.72;102687.94;10256198;28;20224;-65
2022/03/11 11:46:28;;;;;;;6.77;2.53;;;;;;;13.94;24.34;102682.75;10257702;29;20322;-65
2022/03/11 11:51:59;;;;;;;5.97;2.13;;;;;;;13.93;23.50;102674.03;10257333;28;20287;-68
2022/03/11 11:57:05;;;;;;;4.57;2.37;;;;;;;13.84;23.94;102671.31;10244116;28;20399;-65
2022/03/11 12:02:33;;;;;;;5.23;1.93;;;;;;;14.81;24.31;102657.66;10256854;28;20227;-65
2022/03/11 12:07:49;;;;;;;6.83;2.00;;;;;;;14.50;23.27;102652.09;10258683;29;20223;-63
2022/03/11 12:13:02;;;;;;;6.83;2.57;;;;;;;14.59;22.96;102641.75;10259700;28;20237;-66
2022/03/11 12:18:05;;;;;;;4.73;2.30;;;;;;;15.07;23.38;102639.59;10259356;29;20579;-65
2022/03/11 12:23:12;;;;;;;8.07;2.30;;;;;;;15.54;23.48;102625.13;10259136;28;20231;-64
2022/03/11 12:28:17;;;;;;;4.50;2.03;;;;;;;15.60;23.36;102621.69;10259373;29;20231;-65
2022/03/11 12:33:23;;;;;;;7.83;2.30;;;;;;;15.58;22.25;102618.16;10258749;28;20228;-66
2022/03/11 12:38:29;;;;;;;7.93;2.30;;;;;;;15.12;23.00;102616.94;10258610;29;20286;-66
2022/03/11 12:43:32;;;;;;;7.60;1.90;;;;;;;14.65;22.98;102613.06;10258023;28;20224;-66
2022/03/11 12:48:39;;;;;;;6.93;2.33;;;;;;;13.98;23.12;102621.88;10258152;28;20227;-66
2022/03/11 12:53:44;;;;;;;5.20;2.13;;;;;;;13.64;24.53;102615.34;10290244;28;20233;-66
2022/03/11 12:58:48;;;;;;;6.37;2.10;;;;;;;12.98;23.44;102606.50;10297819;28;20247;-66
2022/03/11 13:03:53;;;;;;;5.03;2.50;;;;;;;13.06;23.61;102610.16;10297056;28;20246;-66
2022/03/11 13:09:03;;;;;;;7.23;2.20;;;;;;;12.75;24.71;102606.09;10297057;28;20306;-63
2022/03/11 13:14:06;;;;;;;5.07;2.60;;;;;;;12.48;24.70;102599.53;10296366;28;20223;-66
2022/03/11 13:19:12;;;;;;;6.73;2.40;;;;;;;12.14;23.40;102599.75;10297092;28;20250;-66
2022/03/11 13:24:17;;;;;;;5.40;1.90;;;;;;;12.14;24.13;102578.94;10296377;28;20297;-68
2022/03/11 13:29:22;;;;;;;4.87;1.60;;;;;;;12.07;25.11;102582.28;10296746;28;20226;-65
2022/03/11 13:34:31;;;;;;;5.80;2.10;;;;;;;12.03;25.66;102573.53;10295951;28;20227;-68
2022/03/11 13:39:36;;;;;;;7.23;2.03;;;;;;;11.61;25.23;102570.91;10296398;28;20294;-67
2022/03/11 13:44:39;;;;;;;5.60;1.97;;;;;;;11.08;24.97;102563.63;10295524;28;20683;-66
2022/03/11 13:49:44;;;;;;;5.63;1.93;;;;;;;10.80;24.98;102557.78;10296294;28;20221;-65
2022/03/11 13:54:51;;;;;;;6.10;1.80;;;;;;;10.37;26.96;102558.44;10295365;28;20668;-65
2022/03/11 13:59:58;;;;;;;5.67;2.10;;;;;;;10.31;26.78;102558.25;10294977;28;20274;-65
2022/03/11 14:05:09;;;;;;;7.27;2.07;;;;;;;10.16;25.50;102547.47;10255144;28;20223;-65
2022/03/11 14:10:19;;;;;;;5.27;1.73;;;;;;;9.47;26.75;102558.41;10256001;29;20386;-65
2022/03/11 14:15:31;;;;;;;6.03;1.80;;;;;;;9.42;27.68;102547.03;10255654;28;20303;-66
2022/03/11 14:20:34;;;;;;;5.40;1.53;;;;;;;8.94;27.52;102542.13;10255057;29;20368;-64
2022/03/11 14:25:39;;;;;;;6.63;2.25;;;;;;;7.96;28.73;102550.81;10255503;28;20104;-63
2022/03/11 14:30:43;;;;;;;;;;;;;;;7.52;29.86;102550.91;10255680;29;20126;-64
2022/03/11 14:35:46;;;;;;;;;;;;;;;7.17;30.87;102547.00;10250003;28;19923;-70
2022/03/11 14:40:51;;;;;;;;;;;;;;;6.79;30.17;102550.66;10252553;28;19933;-64
2022/03/11 14:45:54;;;;;;;;;;;;;;;6.32;30.68;102545.22;10256039;28;19922;-65
2022/03/11 14:51:08;;;;;;;;;;;;;;;6.31;32.11;102537.44;10264660;28;20310;-65
2022/03/11 14:56:13;;;;;;;;;;;;;;;6.04;30.69;102536.28;10279919;28;20005;-63
2022/03/11 15:01:16;;;;;;;;;;;;;;;5.85;31.15;102537.16;10262447;28;20247;-66
2022/03/11 15:06:23;;;;;;;;;;;;;;;5.54;31.79;102528.88;10250285;28;19934;-66
2022/03/11 15:11:27;;;;;;;;;;;;;;;5.41;32.55;102527.44;10275050;28;19922;-65
2022/03/11 15:16:31;;;;;;;;;;;;;;;5.41;32.58;102531.69;9952905;28;10000666;-64
2022/03/11 15:21:36;;;;;;;;;;;;;;;5.31;33.44;102530.41;10258266;28;19930;-65
2022/03/11 15:26:40;;;;;;;;;;;;;;;5.32;32.40;102533.84;10295424;28;19922;-64
2022/03/11 15:31:44;;;;;;;;;;;;;;;5.09;33.37;102527.63;10298045;28;20004;-69
2022/03/11 15:36:47;;;;;;;;;;;;;;;5.01;32.86;102523.81;10297746;28;19922;-65
2022/03/11 15:41:51;;;;;;;;;;;;;;;5.03;34.92;102526.47;10297513;28;20021;-67
2022/03/11 15:46:55;;;;;;;;;;;;;;;4.84;34.46;102528.97;10296715;28;19936;-70
2022/03/11 15:51:58;;;;;;;;;;;;;;;4.78;33.81;102524.41;10297170;28;20028;-65
2022/03/11 15:57:03;;;;;;;;;;;;;;;4.88;34.09;102520.59;10296538;28;19922;-78
2022/03/11 16:02:06;;;;;;;;;;;;;;;4.63;33.95;102522.00;10281723;28;19927;-69
2022/03/11 16:07:09;;;;;;;;;;;;;;;4.54;34.91;102516.41;10261340;28;19922;-68
2022/03/11 16:12:14;;;;;;;;;;;;;;;4.49;34.21;102523.00;10256108;28;20045;-66
2022/03/11 16:17:18;;;;;;;;;;;;;;;4.35;36.35;102512.84;10268668;28;19940;-65
2022/03/11 16:22:21;;;;;;;8.02;2.50;;;;;;;4.27;36.10;102514.16;10258246;28;20754;-65
2022/03/11 16:27:26;;;;;;;8.07;2.70;;;;;;;4.20;36.41;102514.66;10252681;28;20410;-70
2022/03/11 16:32:39;;;;;;;7.90;2.72;;;;;;;4.17;38.45;102517.97;10272170;28;20434;-77
2022/03/11 16:37:43;;;;;;;12.90;4.72;;;;;;;4.11;38.30;102514.19;10262818;28;20525;-66
2022/03/11 16:42:48;;;;;;;7.85;3.10;;;;;;;3.93;38.80;102510.72;10248218;28;20476;-68
2022/03/11 16:47:51;;;;;;;19.97;7.90;;;;;;;3.77;39.70;102515.88;10244643;28;20396;-67
2022/03/11 16:52:54;;;;;;;11.52;3.60;;;;;;;3.65;40.97;102528.97;10233102;28;20418;-70
2022/03/11 16:57:59;;;;;;;10.43;3.47;;;;;;;3.53;40.93;102518.94;10239527;28;20422;-68
2022/03/11 17:03:02;;;;;;;10.98;3.75;;;;;;;3.36;42.50;102530.00;10245927;28;20752;-65
2022/03/11 17:08:09;;;;;;;11.47;4.40;;;;;;;3.12;39.45;102526.06;10251778;28;20451;-66
2022/03/11 17:13:13;;;;;;;16.27;6.20;;;;;;;3.11;40.60;102520.88;10250709;28;20407;-68
2022/03/11 17:18:17;;;;;;;14.70;5.05;;;;;;;3.03;41.50;102514.44;10284853;28;20414;-66
2022/03/11 17:23:20;;;;;;;15.55;6.60;;;;;;;2.87;42.41;102519.53;10291073;28;20935;-68
2022/03/11 17:28:24;;;;;;;17.55;7.78;;;;;;;2.86;41.98;102525.47;10270171;28;20422;-68
2022/03/11 17:33:28;;;;;;;16.65;7.70;;;;;;;2.76;43.32;102513.81;10250553;28;20867;-65
2022/03/11 17:38:31;;;;;;;19.80;7.70;;;;;;;2.65;41.49;102516.56;10249625;28;20396;-65
2022/03/11 17:43:37;;;;;;;17.45;8.07;;;;;;;2.60;42.88;102516.31;10250493;28;20426;-64
2022/03/11 17:48:41;;;;;;;207.03;97.00;;;;;;;2.52;43.15;102516.69;10250541;29;20496;-66
2022/03/11 17:53:44;;;;;;;24.75;10.45;;;;;;;2.47;44.15;102516.41;10250212;29;20418;-68
2022/03/11 17:58:49;;;;;;;20.20;8.52;;;;;;;2.34;44.11;102516.53;10252216;28;20410;-67
2022/03/11 18:03:52;;;;;;;18.27;8.00;;;;;;;2.25;44.92;102523.69;10249725;28;20753;-68
2022/03/11 18:08:58;;;;;;;19.58;9.20;;;;;;;2.00;46.27;102523.06;10250059;28;20509;-65
2022/03/11 18:14:21;;;;;;;22.30;10.85;;;;;;;1.89;48.17;102513.84;10249970;28;20415;-65
2022/03/11 18:19:25;;;;;;;21.98;12.10;;;;;;;1.80;47.37;102516.75;10249919;28;20483;-70
2022/03/11 18:24:28;;;;;;;28.13;13.27;;;;;;;1.85;47.85;102517.00;10249962;28;20843;-68
2022/03/11 18:29:33;;;;;;;24.37;10.40;;;;;;;1.73;47.45;102513.72;10252281;28;20243;-66
2022/03/11 18:34:36;;;;;;;31.23;11.63;;;;;;;1.63;46.54;102516.53;10252053;28;20224;-67
2022/03/11 18:39:40;;;;;;;58.17;23.87;;;;;;;1.65;47.59;102517.50;10252418;28;20830;-68
2022/03/11 18:44:44;;;;;;;27.47;14.17;;;;;;;1.52;47.85;102515.88;10251926;28;20224;-65
2022/03/11 18:49:47;;;;;;;30.20;14.53;;;;;;;1.48;48.26;102513.94;10256189;28;20232;-65
2022/03/11 18:54:51;;;;;;;31.77;14.53;;;;;;;1.39;47.93;102520.16;10259557;28;20220;-65
2022/03/11 18:59:57;;;;;;;29.40;14.40;;;;;;;1.24;48.33;102516.66;10259231;28;20770;-65
2022/03/11 19:05:00;;;;;;;41.00;15.80;;;;;;;1.15;47.79;102511.88;10258968;28;20565;-67
2022/03/11 19:10:05;;;;;;;41.40;17.00;;;;;;;1.13;48.44;102513.44;10258980;28;20548;-65
2022/03/11 19:15:10;;;;;;;36.67;16.20;;;;;;;1.10;47.36;102513.25;10258422;28;20250;-64
2022/03/11 19:20:16;;;;;;;35.73;15.70;;;;;;;0.91;47.14;102528.22;10258458;28;20645;-63
2022/03/11 19:25:20;;;;;;;40.13;16.77;;;;;;;0.95;47.90;102528.50;10258079;28;20617;-66
2022/03/11 19:30:25;;;;;;;46.53;18.80;;;;;;;0.91;47.76;102538.47;10257609;28;20244;-67
2022/03/11 19:35:28;;;;;;;36.43;14.00;;;;;;;0.72;46.96;102538.97;10258735;28;20660;-63
2022/03/11 19:40:34;;;;;;;35.80;14.40;;;;;;;0.71;48.06;102533.72;10271268;28;20223;-62
2022/03/11 19:45:39;;;;;;;39.10;15.67;;;;;;;0.66;47.42;102532.56;10283234;28;20232;-64
2022/03/11 19:50:43;;;;;;;42.27;15.47;;;;;;;0.59;47.13;102530.38;10257448;28;20220;-66
2022/03/11 19:55:51;;;;;;;45.07;18.53;;;;;;;0.49;47.31;102533.13;10257378;28;20326;-67
2022/03/11 20:00:57;;;;;;;43.73;17.50;;;;;;;0.42;47.29;102536.06;10255898;28;20624;-65
2022/03/11 20:06:01;;;;;;;41.67;18.87;;;;;;;0.30;47.85;102535.28;10256693;29;20312;-65
2022/03/11 20:11:08;;;;;;;52.43;19.10;;;;;;;0.28;49.67;102547.06;10256427;28;20192;-65
2022/03/11 20:16:14;;;;;;;47.63;19.43;;;;;;;0.36;49.41;102541.69;10259956;28;20592;-64
2022/03/11 20:21:18;;;;;;;47.97;18.77;;;;;;;0.30;48.58;102541.28;10259265;28;20318;-65
2022/03/11 20:26:22;;;;;;;53.23;19.77;;;;;;;0.21;50.11;102538.09;10259061;28;20354;-64
2022/03/11 20:31:26;;;;;;;52.00;21.00;;;;;;;0.14;50.66;102537.63;10258792;28;20210;-63
2022/03/11 20:36:31;;;;;;;52.07;20.07;;;;;;;0.02;50.73;102524.06;10258697;28;20295;-64
2022/03/11 20:41:37;;;;;;;54.97;21.87;;;;;;;-0.06;52.11;102523.53;10258248;29;20197;-65
2022/03/11 20:46:45;;;;;;;50.67;21.13;;;;;;;-0.04;53.57;102517.75;10258322;28;20216;-67
2022/03/11 20:51:49;;;;;;;45.07;21.23;;;;;;;-0.06;52.82;102514.22;10258114;28;20631;-62
2022/03/11 20:56:53;;;;;;;52.80;21.50;;;;;;;-0.12;52.59;102516.34;10257849;28;20310;-65
2022/03/11 21:01:58;;;;;;;50.13;20.10;;;;;;;-0.15;53.26;102510.16;10261732;28;20215;-66
2022/03/11 21:07:03;;;;;;;50.27;20.90;;;;;;;-0.19;52.79;102505.66;10297126;28;20234;-65
2022/03/11 21:12:09;;;;;;;52.93;22.17;;;;;;;-0.27;53.41;102504.22;10263715;28;20224;-64
2022/03/11 21:17:14;;;;;;;47.90;20.10;;;;;;;-0.29;53.72;102493.91;10257183;28;20240;-65
2022/03/11 21:22:20;;;;;;;52.27;21.20;;;;;;;-0.33;54.03;102491.94;10257098;28;20220;-68
2022/03/11 21:27:23;;;;;;;56.70;23.03;;;;;;;-0.42;54.55;102499.00;10256870;28;20311;-67
2022/03/11 21:32:27;;;;;;;45.53;21.17;;;;;;;-0.38;56.18;102495.84;10256557;28;20299;-67
2022/03/11 21:37:34;;;;;;;59.90;22.60;;;;;;;-0.42;55.69;102495.53;10256538;28;20356;-68
2022/03/11 21:42:37;;;;;;;53.97;20.87;;;;;;;-0.52;55.77;102500.81;10256573;28;20218;-67
2022/03/11 21:47:42;;;;;;;56.43;21.70;;;;;;;-0.61;56.58;102498.50;10256560;28;20315;-66
2022/03/11 21:52:46;;;;;;;60.50;21.73;;;;;;;-0.61;56.27;102502.72;10256313;28;20227;-64
2022/03/11 21:57:50;;;;;;;58.23;24.00;;;;;;;-0.61;57.17;102502.72;10256125;28;20239;-68
2022/03/11 22:02:54;;;;;;;60.13;22.77;;;;;;;-0.73;57.32;102496.78;10256100;28;20299;-69
2022/03/11 22:07:58;;;;;;;57.80;24.53;;;;;;;-0.70;58.86;102500.44;10255836;28;20216;-66
2022/03/11 22:13:01;;;;;;;55.03;22.47;;;;;;;-0.75;58.31;102498.31;10255923;28;20299;-69
2022/03/11 22:18:07;;;;;;;58.73;24.57;;;;;;;-0.65;58.70;102493.97;10255548;28;20374;-68
2022/03/11 22:23:10;;;;;;;51.20;22.43;;;;;;;-0.65;59.42;102506.72;10257571;28;20223;-68
2022/03/11 22:28:13;;;;;;;51.10;22.47;;;;;;;-0.56;59.02;102509.00;10263625;28;20224;-66
2022/03/11 22:33:18;;;;;;;65.63;25.13;;;;;;;-0.69;59.62;102508.97;10262948;28;20226;-66
2022/03/11 22:38:21;;;;;;;62.93;24.83;;;;;;;-0.84;59.21;102510.44;10263403;28;20220;-62
2022/03/11 22:43:25;;;;;;;67.97;27.07;;;;;;;-0.97;58.03;102516.34;10262894;28;20224;-68
2022/03/11 22:48:30;;;;;;;71.77;25.67;;;;;;;-0.83;59.79;102505.47;10262991;28;20216;-64
2022/03/11 22:53:36;;;;;;;65.47;27.13;;;;;;;-1.05;60.01;102512.34;10262885;28;20286;-63
2022/03/11 22:58:40;;;;;;;78.00;28.63;;;;;;;-1.14;60.35;102509.19;10262769;28;20219;-66
2022/03/11 23:03:45;;;;;;;73.40;29.37;;;;;;;-1.23;59.99;102504.31;10262299;28;20238;-64
2022/03/11 23:14:09;;;;;;;73.73;29.90;;;;;;;-1.33;56.70;102508.66;10262148;29;20223;-64
2022/03/11 23:19:14;;;;;;;72.50;30.43;;;;;;;-1.28;56.47;102504.78;10260420;28;20232;-65
2022/03/11 23:24:17;;;;;;;82.00;32.53;;;;;;;-1.35;57.51;102508.50;10261612;28;20232;-67
2022/03/11 23:29:21;;;;;;;83.27;31.43;;;;;;;-1.38;57.38;102505.75;10261321;28;20217;-63